Time;durP1;ratioP1;P1;durP2;ratioP2;P2;SDS_P1;SDS_P2;PMS_P1;PMS_P2;Temp;Humidity;BMP_temperature;BMP_pressure;BME280_temperature;BME280_humidity;BME280_pressure;Samples;Min_cycle;Max_cycle;Signal;HPM_P1;HPM_P2
2022/09/10 00:00:55;;;;;;;10.15;7.03;;;16.00;99.90;;;;;;5109982;28;20133;-72
2022/09/10 00:03:21;;;;;;;11.23;7.22;;;16.10;99.90;;;;;;5098008;27;20031;-72
2022/09/10 00:05:47;;;;;;;10.73;7.57;;;16.10;99.90;;;;;;5114411;28;20059;-72
2022/09/10 00:08:14;;;;;;;11.32;7.50;;;16.10;99.90;;;;;;5114695;28;20043;-72
2022/09/10 00:10:42;;;;;;;12.50;7.55;;;16.00;99.90;;;;;;5103436;28;20036;-73
2022/09/10 00:13:09;;;;;;;11.27;7.97;;;16.00;99.90;;;;;;5093699;28;20043;-73
2022/09/10 00:15:53;;;;;;;11.52;7.50;;;16.00;99.90;;;;;;5109949;28;20075;-73
2022/09/10 00:18:21;;;;;;;10.80;7.85;;;16.00;99.90;;;;;;5094024;28;20040;-73
2022/09/10 00:20:50;;;;;;;10.82;8.35;;;16.00;99.90;;;;;;5110425;28;20046;-73
2022/09/10 00:23:18;;;;;;;11.73;8.00;;;16.00;99.90;;;;;;5093857;28;20096;-73
2022/09/10 00:25:45;;;;;;;10.15;7.82;;;16.00;99.90;;;;;;5103325;28;20042;-73
2022/09/10 00:28:11;;;;;;;10.80;7.90;;;16.00;99.90;;;;;;5113224;28;20044;-72
2022/09/10 00:30:41;;;;;;;12.90;8.77;;;16.00;99.90;;;;;;5113198;28;20044;-73
2022/09/10 00:33:07;;;;;;;12.73;8.63;;;16.00;99.90;;;;;;5093671;28;20052;-73
2022/09/10 00:35:34;;;;;;;11.43;8.30;;;16.00;99.90;;;;;;5093871;28;20040;-72
2022/09/10 00:38:00;;;;;;;10.60;8.27;;;16.00;99.90;;;;;;5093875;28;20365;-73
2022/09/10 00:40:27;;;;;;;11.73;9.35;;;16.00;99.90;;;;;;5097167;28;20121;-73
2022/09/10 00:42:53;;;;;;;11.93;8.95;;;16.00;99.90;;;;;;5110503;27;20043;-73
2022/09/10 00:45:28;;;;;;;11.65;8.50;;;16.00;99.90;;;;;;5093498;28;20044;-73
2022/09/10 00:48:18;;;;;;;13.20;9.85;;;15.90;99.90;;;;;;5093677;28;20089;-73
2022/09/10 00:50:47;;;;;;;10.95;9.18;;;16.00;99.90;;;;;;5087260;28;20052;-73
2022/09/10 00:53:20;;;;;;;12.55;9.57;;;16.00;99.90;;;;;;5101364;28;20048;-73
2022/09/10 00:55:49;;;;;;;15.48;10.02;;;16.00;99.90;;;;;;5092418;28;20040;-73
2022/09/10 00:58:18;;;;;;;12.93;10.10;;;16.00;99.90;;;;;;5097481;28;20071;-73
2022/09/10 01:00:44;;;;;;;13.35;9.88;;;16.00;99.90;;;;;;5092522;28;20032;-73
2022/09/10 01:03:12;;;;;;;15.00;10.82;;;16.00;99.90;;;;;;5095339;28;20039;-72
2022/09/10 01:05:41;;;;;;;13.13;10.85;;;16.00;99.90;;;;;;5103668;28;20055;-73
2022/09/10 01:08:15;;;;;;;14.20;11.10;;;15.90;99.90;;;;;;5101416;28;20044;-73
2022/09/10 01:11:02;;;;;;;13.65;10.88;;;15.80;99.90;;;;;;5091345;28;20115;-73
2022/09/10 01:13:31;;;;;;;15.02;11.45;;;15.80;99.90;;;;;;5104286;28;20039;-73
2022/09/10 01:16:09;;;;;;;13.93;11.23;;;15.90;99.90;;;;;;5129260;28;20040;-73
2022/09/10 01:18:46;;;;;;;14.75;11.52;;;15.90;99.90;;;;;;5113506;28;20496;-73
2022/09/10 01:21:36;;;;;;;14.88;10.93;;;15.90;99.90;;;;;;5107731;28;20040;-74
2022/09/10 01:24:42;;;;;;;14.45;11.07;;;15.80;99.90;;;;;;5091384;28;20493;-74
2022/09/10 01:27:37;;;;;;;13.85;11.15;;;15.80;99.90;;;;;;5093263;28;20036;-74
2022/09/10 01:30:06;;;;;;;12.98;11.00;;;15.80;99.90;;;;;;5093170;28;20036;-75
2022/09/10 01:32:45;;;;;;;14.07;10.95;;;15.80;99.90;;;;;;5100178;28;20036;-73
2022/09/10 01:35:42;;;;;;;13.73;10.90;;;15.90;99.90;;;;;;5113389;28;20046;-73
2022/09/10 01:38:12;;;;;;;14.25;10.95;;;15.90;99.90;;;;;;5104775;28;20078;-74
2022/09/10 01:40:39;;;;;;;14.90;11.65;;;16.00;99.90;;;;;;5110435;28;20032;-74
2022/09/10 01:43:07;;;;;;;15.43;11.77;;;16.00;99.90;;;;;;5102433;28;20069;-75
2022/09/10 01:45:44;;;;;;;14.95;11.70;;;16.00;99.90;;;;;;5111375;28;20040;-74
2022/09/10 01:48:19;;;;;;;13.75;11.93;;;16.00;99.90;;;;;;5102921;28;20072;-73
2022/09/10 01:50:59;;;;;;;13.90;12.13;;;16.00;99.90;;;;;;5092970;28;20107;-73
2022/09/10 01:53:49;;;;;;;14.88;12.20;;;16.00;99.90;;;;;;5108659;28;20115;-73
2022/09/10 01:56:48;;;;;;;14.88;12.23;;;16.00;99.90;;;;;;5111901;28;20043;-73
2022/09/10 01:59:35;;;;;;;14.38;12.02;;;16.00;99.90;;;;;;5093887;28;20051;-73
2022/09/10 02:02:12;;;;;;;14.20;11.65;;;16.00;99.90;;;;;;5094802;28;20044;-74
2022/09/10 02:04:39;;;;;;;14.38;12.75;;;16.00;99.90;;;;;;5112941;28;20074;-74
2022/09/10 02:07:06;;;;;;;15.65;13.55;;;16.00;99.90;;;;;;5112038;28;20043;-74
2022/09/10 02:09:32;;;;;;;15.95;13.40;;;16.00;99.90;;;;;;5113000;28;20488;-74
2022/09/10 02:11:58;;;;;;;17.48;13.65;;;16.00;99.90;;;;;;5111496;28;20034;-73
2022/09/10 02:14:24;;;;;;;19.55;14.98;;;16.10;99.90;;;;;;5113055;28;20031;-73
2022/09/10 02:16:57;;;;;;;17.13;14.43;;;16.00;99.90;;;;;;5112921;28;20099;-74
2022/09/10 02:19:25;;;;;;;18.70;15.73;;;16.00;99.90;;;;;;5114263;28;20513;-73
2022/09/10 02:21:52;;;;;;;21.73;15.98;;;16.10;99.90;;;;;;5113091;28;20149;-74
2022/09/10 02:24:19;;;;;;;20.40;16.30;;;16.10;99.90;;;;;;5115715;27;20032;-74
2022/09/10 02:26:46;;;;;;;17.10;15.30;;;16.00;99.90;;;;;;5116513;28;20035;-73
2022/09/10 02:29:14;;;;;;;20.83;15.48;;;16.00;99.90;;;;;;5097372;28;20480;-73
2022/09/10 02:31:40;;;;;;;20.42;17.55;;;15.90;99.90;;;;;;5129234;27;20047;-73
2022/09/10 02:34:06;;;;;;;22.73;17.77;;;16.00;99.90;;;;;;5114960;28;20035;-74
2022/09/10 02:36:32;;;;;;;21.23;17.35;;;16.00;99.90;;;;;;5115046;28;20119;-74
2022/09/10 02:38:59;;;;;;;19.48;17.10;;;16.00;99.90;;;;;;5114193;28;20487;-74
2022/09/10 02:41:25;;;;;;;23.17;17.33;;;16.00;99.90;;;;;;5104594;28;20044;-74
2022/09/10 02:43:51;;;;;;;20.33;17.45;;;16.00;99.90;;;;;;5116398;28;20384;-73
2022/09/10 02:46:17;;;;;;;25.33;18.38;;;16.00;99.90;;;;;;5097846;28;20065;-73
2022/09/10 02:48:43;;;;;;;24.48;19.00;;;16.00;99.90;;;;;;5100899;28;20488;-73
2022/09/10 02:51:09;;;;;;;24.63;18.88;;;16.00;99.90;;;;;;5099598;28;20043;-73
2022/09/10 02:53:34;;;;;;;21.63;18.38;;;16.00;99.90;;;;;;5095776;28;20510;-73
2022/09/10 02:56:01;;;;;;;24.15;19.27;;;16.10;99.90;;;;;;5113496;28;20031;-73
2022/09/10 02:58:30;;;;;;;22.98;18.30;;;16.10;99.90;;;;;;5103079;28;20115;-73
2022/09/10 03:01:07;;;;;;;22.95;19.38;;;16.10;99.90;;;;;;5098522;28;20476;-73
2022/09/10 03:03:34;;;;;;;23.10;18.55;;;16.10;99.90;;;;;;5116106;28;20419;-74
2022/09/10 03:06:00;;;;;;;25.17;19.00;;;16.10;99.90;;;;;;5115619;28;20047;-73
2022/09/10 03:08:26;;;;;;;23.55;18.80;;;16.10;99.90;;;;;;5113354;28;20119;-74
2022/09/10 03:10:51;;;;;;;23.73;18.38;;;16.10;99.90;;;;;;5114498;27;20154;-74
2022/09/10 03:13:17;;;;;;;24.50;19.10;;;16.10;99.90;;;;;;5115657;28;20043;-74
2022/09/10 03:15:42;;;;;;;24.75;19.02;;;16.10;99.90;;;;;;5114415;28;20032;-73
2022/09/10 03:18:08;;;;;;;20.83;16.73;;;16.10;99.90;;;;;;5105455;28;20517;-73
2022/09/10 03:20:35;;;;;;;20.13;17.35;;;16.10;99.90;;;;;;5094195;28;20072;-73
2022/09/10 03:23:02;;;;;;;25.00;18.48;;;16.00;99.90;;;;;;5095250;28;20377;-74
2022/09/10 03:25:28;;;;;;;24.58;18.33;;;16.00;99.90;;;;;;5095090;28;20044;-74
2022/09/10 03:27:54;;;;;;;21.38;17.52;;;15.90;99.90;;;;;;5094248;28;20039;-74
2022/09/10 03:30:20;;;;;;;22.20;17.67;;;15.90;99.90;;;;;;5102967;28;20118;-75
2022/09/10 03:32:46;;;;;;;22.02;18.35;;;15.90;99.90;;;;;;5115455;28;20038;-74
2022/09/10 03:35:12;;;;;;;24.02;17.58;;;16.00;99.90;;;;;;5114086;28;20032;-74
2022/09/10 03:37:38;;;;;;;21.25;16.40;;;16.00;99.90;;;;;;5114150;28;20518;-75
2022/09/10 03:40:06;;;;;;;19.90;16.15;;;16.00;99.90;;;;;;5115131;28;20434;-73
2022/09/10 03:42:32;;;;;;;19.83;16.80;;;16.00;99.90;;;;;;5114478;28;20081;-74
2022/09/10 03:44:57;;;;;;;20.33;15.90;;;16.00;99.90;;;;;;5114396;28;21627;-73
2022/09/10 03:47:23;;;;;;;21.65;17.15;;;16.00;99.90;;;;;;5106251;28;20027;-73
2022/09/10 03:49:49;;;;;;;18.63;16.63;;;16.00;99.90;;;;;;5103264;28;20075;-74
2022/09/10 03:52:16;;;;;;;22.02;16.10;;;15.90;99.90;;;;;;5101120;28;20070;-73
2022/09/10 03:54:41;;;;;;;20.08;16.63;;;15.90;99.90;;;;;;5094409;28;20472;-73
2022/09/10 03:57:07;;;;;;;20.20;16.60;;;15.90;99.90;;;;;;5094156;28;20043;-73
2022/09/10 03:59:33;;;;;;;18.80;15.73;;;15.90;99.90;;;;;;5093112;28;20036;-73
2022/09/10 04:01:59;;;;;;;22.17;16.70;;;15.90;99.90;;;;;;5093959;28;20046;-73
2022/09/10 04:04:25;;;;;;;18.83;15.73;;;15.90;99.90;;;;;;5102956;28;20122;-73
2022/09/10 04:06:53;;;;;;;20.60;15.98;;;15.90;99.90;;;;;;5113696;28;20051;-73
2022/09/10 04:09:19;;;;;;;20.23;15.77;;;15.90;99.90;;;;;;5101069;28;20040;-74
2022/09/10 04:11:45;;;;;;;18.15;14.95;;;16.00;99.90;;;;;;5094222;28;20035;-73
2022/09/10 04:14:11;;;;;;;19.80;16.13;;;16.10;99.90;;;;;;5094320;28;20032;-72
2022/09/10 04:16:36;;;;;;;19.02;14.98;;;16.00;99.90;;;;;;5094124;28;20035;-73
2022/09/10 04:19:02;;;;;;;18.58;15.68;;;16.10;99.90;;;;;;5094016;28;20048;-73
2022/09/10 04:21:28;;;;;;;20.48;14.85;;;16.10;99.90;;;;;;5102728;28;20031;-73
2022/09/10 04:23:55;;;;;;;18.08;15.45;;;16.10;99.90;;;;;;5111247;28;20039;-73
2022/09/10 04:26:21;;;;;;;21.65;16.23;;;16.20;99.90;;;;;;5094190;28;20086;-73
2022/09/10 04:28:47;;;;;;;20.58;15.98;;;16.20;99.90;;;;;;5093903;28;20047;-74
2022/09/10 04:31:13;;;;;;;18.73;15.50;;;16.10;99.90;;;;;;5094001;28;20047;-73
2022/09/10 04:33:38;;;;;;;18.35;14.82;;;16.20;99.90;;;;;;5093794;28;20036;-74
2022/09/10 04:36:05;;;;;;;18.52;14.65;;;16.20;99.90;;;;;;5093741;28;20070;-74
2022/09/10 04:38:31;;;;;;;18.33;14.95;;;16.10;99.90;;;;;;5093533;28;20446;-73
2022/09/10 04:40:59;;;;;;;18.63;15.40;;;16.10;99.90;;;;;;5094091;28;20093;-73
2022/09/10 04:43:25;;;;;;;17.95;14.77;;;16.00;99.90;;;;;;5093623;28;20039;-73
2022/09/10 04:45:51;;;;;;;18.88;14.60;;;16.10;99.90;;;;;;5092369;28;20043;-73
2022/09/10 04:48:17;;;;;;;17.25;14.40;;;16.10;99.90;;;;;;5092354;28;20111;-73
2022/09/10 04:50:43;;;;;;;18.05;14.57;;;16.10;99.90;;;;;;5096384;28;20107;-73
2022/09/10 04:53:09;;;;;;;19.08;15.05;;;16.10;99.90;;;;;;5113876;28;20504;-73
2022/09/10 04:55:36;;;;;;;18.20;15.68;;;16.00;99.90;;;;;;5113192;28;20475;-73
2022/09/10 04:58:01;;;;;;;20.42;15.23;;;16.00;99.90;;;;;;5110194;28;20043;-73
2022/09/10 05:00:27;;;;;;;18.85;14.70;;;16.10;99.90;;;;;;5092134;28;20043;-73
2022/09/10 05:02:52;;;;;;;18.60;15.13;;;16.10;99.90;;;;;;5093415;28;20446;-73
2022/09/10 05:05:18;;;;;;;19.25;14.73;;;16.00;99.90;;;;;;5102302;27;20048;-73
2022/09/10 05:07:43;;;;;;;17.23;14.85;;;16.10;99.90;;;;;;5109038;28;20032;-73
2022/09/10 05:10:09;;;;;;;18.27;15.00;;;16.00;99.90;;;;;;5093180;28;20044;-73
2022/09/10 05:12:37;;;;;;;17.92;14.40;;;16.00;99.90;;;;;;5094719;28;20058;-73
2022/09/10 05:15:05;;;;;;;20.58;15.57;;;15.90;99.90;;;;;;5113649;28;20088;-73
2022/09/10 05:17:32;;;;;;;18.50;15.43;;;15.90;99.90;;;;;;5110654;28;20039;-73
2022/09/10 05:19:57;;;;;;;18.88;15.68;;;15.90;99.90;;;;;;5104265;28;20471;-73
2022/09/10 05:22:23;;;;;;;18.17;15.13;;;15.80;99.90;;;;;;5104129;28;20079;-73
2022/09/10 05:24:49;;;;;;;21.08;16.23;;;15.80;99.90;;;;;;5113670;28;20089;-73
2022/09/10 05:27:15;;;;;;;18.02;14.63;;;15.80;99.90;;;;;;5099429;28;20399;-73
2022/09/10 05:29:41;;;;;;;22.15;16.23;;;15.80;99.90;;;;;;5108162;28;20453;-73
2022/09/10 05:32:08;;;;;;;19.85;16.48;;;15.80;99.90;;;;;;5112640;28;20118;-73
2022/09/10 05:34:34;;;;;;;19.83;15.35;;;15.80;99.90;;;;;;5105368;28;20515;-73
2022/09/10 05:36:59;;;;;;;18.42;15.45;;;15.80;99.90;;;;;;5094159;28;20040;-73
2022/09/10 05:39:25;;;;;;;20.38;15.85;;;15.80;99.90;;;;;;5105647;28;20092;-73
2022/09/10 05:41:51;;;;;;;19.23;14.95;;;15.80;99.90;;;;;;5113554;28;20031;-73
2022/09/10 05:44:17;;;;;;;15.52;13.57;;;15.80;99.90;;;;;;5078186;28;20039;-73
2022/09/10 05:46:43;;;;;;;17.83;15.32;;;15.80;99.90;;;;;;5104568;28;20040;-73
2022/09/10 05:49:09;;;;;;;20.02;15.50;;;15.90;99.90;;;;;;5109883;28;20046;-73
2022/09/10 05:51:35;;;;;;;18.80;16.10;;;15.90;99.90;;;;;;5110722;28;20034;-73
2022/09/10 05:54:00;;;;;;;18.13;15.15;;;15.90;99.90;;;;;;5099718;28;20042;-73
2022/09/10 05:56:26;;;;;;;18.77;15.45;;;15.90;99.90;;;;;;5116238;27;20032;-73
2022/09/10 05:58:52;;;;;;;17.50;14.55;;;15.90;99.90;;;;;;5116182;28;20119;-73
2022/09/10 06:01:18;;;;;;;21.02;14.75;;;16.00;99.90;;;;;;5117093;28;20027;-73
2022/09/10 06:03:43;;;;;;;20.83;14.82;;;16.10;99.90;;;;;;5112364;28;20084;-72
2022/09/10 06:06:09;;;;;;;23.00;16.15;;;16.00;99.90;;;;;;5114765;28;20044;-73
2022/09/10 06:08:34;;;;;;;20.75;16.40;;;16.10;99.90;;;;;;5101982;28;20157;-73
2022/09/10 06:11:05;;;;;;;20.73;15.90;;;16.00;99.90;;;;;;5102810;28;20071;-73
2022/09/10 06:13:37;;;;;;;22.75;16.00;;;16.00;99.90;;;;;;5102559;28;20487;-73
2022/09/10 06:16:03;;;;;;;20.10;15.95;;;16.10;99.90;;;;;;5114530;28;20538;-71
2022/09/10 06:18:30;;;;;;;21.58;16.83;;;16.00;99.90;;;;;;5113506;28;20144;-80
2022/09/10 06:21:04;;;;;;;22.83;16.58;;;16.10;99.90;;;;;;5110892;28;20528;-73
2022/09/10 06:23:31;;;;;;;20.50;15.23;;;16.10;99.90;;;;;;5098788;28;20054;-73
2022/09/10 06:26:03;;;;;;;22.38;16.27;;;16.00;99.90;;;;;;5107717;28;20119;-73
2022/09/10 06:28:29;;;;;;;19.27;15.50;;;16.00;99.90;;;;;;5133919;27;20365;-73
2022/09/10 06:30:55;;;;;;;23.48;16.40;;;16.00;99.90;;;;;;5111946;28;20039;-73
2022/09/10 06:33:20;;;;;;;26.10;17.92;;;15.90;99.90;;;;;;5098245;28;20047;-73
2022/09/10 06:35:54;;;;;;;24.13;18.20;;;16.10;99.90;;;;;;5114171;28;20035;-73
2022/09/10 06:38:20;;;;;;;24.75;17.63;;;16.00;99.90;;;;;;5116467;28;20036;-73
2022/09/10 06:40:53;;;;;;;25.05;17.35;;;15.90;99.90;;;;;;5115117;28;20035;-73
2022/09/10 06:43:22;;;;;;;20.65;16.33;;;16.00;99.90;;;;;;5113956;28;20055;-73
2022/09/10 06:45:52;;;;;;;22.60;15.25;;;15.90;99.90;;;;;;5116258;28;20042;-73
2022/09/10 06:48:20;;;;;;;36.97;19.48;;;16.00;99.90;;;;;;5115102;27;20073;-73
2022/09/10 06:50:54;;;;;;;26.17;17.88;;;16.00;99.90;;;;;;5116219;28;20039;-73
2022/09/10 06:53:21;;;;;;;25.90;17.00;;;16.00;99.90;;;;;;5112681;28;20037;-73
2022/09/10 06:55:49;;;;;;;22.15;17.23;;;16.00;99.90;;;;;;5116089;28;20182;-73
2022/09/10 06:58:15;;;;;;;22.27;16.75;;;16.00;99.90;;;;;;5113380;28;20064;-73
2022/09/10 07:00:42;;;;;;;30.23;19.08;;;16.00;99.90;;;;;;5115129;27;20042;-73
2022/09/10 07:03:08;;;;;;;29.95;18.08;;;16.00;99.90;;;;;;5114392;28;20050;-72
2022/09/10 07:05:34;;;;;;;27.30;17.08;;;16.10;99.90;;;;;;5115218;28;20090;-73
2022/09/10 07:08:00;;;;;;;24.33;17.15;;;16.10;99.90;;;;;;5115041;28;20112;-73
2022/09/10 07:10:27;;;;;;;25.05;18.05;;;16.10;99.90;;;;;;5114065;28;20061;-72
2022/09/10 07:12:53;;;;;;;26.10;18.48;;;16.10;99.90;;;;;;5115745;28;20050;-72
2022/09/10 07:15:18;;;;;;;25.67;18.75;;;16.00;99.90;;;;;;5113462;27;20050;-73
2022/09/10 07:17:44;;;;;;;29.35;19.13;;;16.00;99.90;;;;;;5113229;28;20535;-73
2022/09/10 07:20:09;;;;;;;26.38;18.35;;;16.00;99.90;;;;;;5114249;28;20119;-73
2022/09/10 07:22:36;;;;;;;27.88;19.33;;;16.00;99.90;;;;;;5113071;28;20066;-73
2022/09/10 07:25:02;;;;;;;28.30;19.30;;;16.10;99.90;;;;;;5113082;28;20043;-72
2022/09/10 07:27:28;;;;;;;30.17;18.80;;;16.10;99.90;;;;;;5115443;28;20032;-72
2022/09/10 07:29:53;;;;;;;28.23;18.83;;;16.10;99.90;;;;;;5113039;28;20039;-72
2022/09/10 07:32:19;;;;;;;25.48;18.08;;;16.10;99.90;;;;;;5115502;28;20438;-72
2022/09/10 07:34:46;;;;;;;30.15;19.83;;;16.10;99.90;;;;;;5112228;27;20111;-73
2022/09/10 07:37:14;;;;;;;22.63;18.05;;;16.10;99.90;;;;;;5114169;28;20066;-73
2022/09/10 07:39:40;;;;;;;24.63;18.10;;;16.00;99.90;;;;;;5111254;27;20055;-72
2022/09/10 07:42:06;;;;;;;27.83;19.63;;;16.10;99.90;;;;;;5113926;28;20122;-72
2022/09/10 07:44:31;;;;;;;27.65;18.48;;;16.10;99.90;;;;;;5113031;28;20036;-72
2022/09/10 07:46:57;;;;;;;26.17;17.13;;;16.10;99.90;;;;;;5114121;28;20188;-73
2022/09/10 07:49:23;;;;;;;26.77;18.88;;;16.10;99.90;;;;;;5114967;28;20051;-72
2022/09/10 07:51:52;;;;;;;27.00;18.88;;;16.20;99.90;;;;;;5114907;28;20028;-72
2022/09/10 07:54:18;;;;;;;27.77;19.05;;;16.20;99.90;;;;;;5114638;28;20100;-72
2022/09/10 07:56:44;;;;;;;31.98;19.60;;;16.20;99.90;;;;;;5115068;28;20120;-72
2022/09/10 07:59:10;;;;;;;28.45;20.15;;;16.20;99.90;;;;;;5109570;28;20081;-72
2022/09/10 08:01:36;;;;;;;33.10;21.50;;;16.20;99.90;;;;;;5108049;28;20036;-72
2022/09/10 08:04:02;;;;;;;27.52;19.13;;;16.20;99.90;;;;;;5113475;28;20429;-72
2022/09/10 08:06:27;;;;;;;26.30;19.08;;;16.20;99.90;;;;;;5112798;28;20054;-72
2022/09/10 08:08:53;;;;;;;29.75;20.42;;;16.20;99.90;;;;;;5114497;28;20448;-72
2022/09/10 08:11:20;;;;;;;26.42;19.60;;;16.20;99.90;;;;;;5111256;27;20031;-72
2022/09/10 08:13:51;;;;;;;36.40;22.25;;;16.20;99.90;;;;;;5096286;28;20067;-72
2022/09/10 08:16:22;;;;;;;32.40;21.02;;;16.30;99.90;;;;;;5111105;28;20518;-73
2022/09/10 08:18:47;;;;;;;32.20;21.50;;;16.30;99.90;;;;;;5114560;28;20450;-71
2022/09/10 08:21:15;;;;;;;29.48;19.05;;;16.30;99.90;;;;;;5106363;28;20097;-72
2022/09/10 08:23:42;;;;;;;30.98;21.15;;;16.40;99.90;;;;;;5108917;28;20174;-72
2022/09/10 08:26:08;;;;;;;33.58;21.58;;;16.50;99.90;;;;;;5113227;28;20044;-72
2022/09/10 08:28:34;;;;;;;29.80;19.98;;;16.50;99.90;;;;;;5114651;27;20051;-72
2022/09/10 08:31:06;;;;;;;26.85;19.23;;;16.70;99.90;;;;;;5110299;28;20082;-72
2022/09/10 08:33:33;;;;;;;30.45;20.52;;;16.70;99.90;;;;;;5111937;28;20093;-72
2022/09/10 08:36:00;;;;;;;29.83;18.35;;;16.90;99.90;;;;;;5111892;28;20043;-72
2022/09/10 08:38:34;;;;;;;27.23;18.95;;;17.00;99.90;;;;;;5111038;28;20036;-72
2022/09/10 08:41:44;;;;;;;25.13;18.38;;;17.10;99.90;;;;;;5111705;28;20036;-72
2022/09/10 08:44:14;;;;;;;24.63;17.88;;;17.20;99.90;;;;;;5024169;28;20448;-72
2022/09/10 08:46:57;;;;;;;25.48;18.77;;;17.40;99.90;;;;;;5086724;28;20066;-72
2022/09/10 08:49:41;;;;;;;25.65;18.42;;;17.40;99.90;;;;;;5111263;28;20399;-72
2022/09/10 08:52:26;;;;;;;24.30;16.58;;;17.40;99.90;;;;;;5113925;28;20118;-72
2022/09/10 08:55:10;;;;;;;23.95;17.15;;;17.50;99.90;;;;;;5111052;28;20081;-72
2022/09/10 08:57:44;;;;;;;26.15;16.77;;;17.90;99.90;;;;;;5109325;27;20049;-72
2022/09/10 09:00:19;;;;;;;24.58;16.73;;;18.00;99.90;;;;;;5110611;28;20118;-72
2022/09/10 09:03:03;;;;;;;22.67;16.42;;;18.00;99.90;;;;;;5112898;28;20047;-72
2022/09/10 09:05:47;;;;;;;28.02;19.92;;;18.10;99.90;;;;;;5111471;28;20059;-72
2022/09/10 09:08:17;;;;;;;25.95;18.52;;;17.90;99.90;;;;;;5092085;28;20092;-72
2022/09/10 09:11:35;;;;;;;24.73;16.80;;;17.80;99.90;;;;;;5093199;28;20036;-72
2022/09/10 09:14:16;;;;;;;25.20;17.80;;;17.80;99.90;;;;;;5122742;28;20051;-72
2022/09/10 09:17:09;;;;;;;22.88;15.95;;;17.90;99.90;;;;;;5122230;28;20100;-72
2022/09/10 09:19:49;;;;;;;23.25;15.82;;;17.90;99.90;;;;;;5111369;28;20043;-72
2022/09/10 09:22:33;;;;;;;20.77;14.57;;;18.00;99.90;;;;;;5112709;28;20069;-71
2022/09/10 09:25:23;;;;;;;22.45;17.42;;;18.20;99.90;;;;;;5112694;28;20051;-71
2022/09/10 09:27:57;;;;;;;19.63;14.85;;;18.20;99.90;;;;;;5097077;27;20093;-71
2022/09/10 09:30:32;;;;;;;20.48;15.05;;;18.10;99.90;;;;;;5106918;28;20051;-71
2022/09/10 09:33:09;;;;;;;20.30;14.30;;;18.20;99.90;;;;;;5111212;28;20031;-71
2022/09/10 09:35:44;;;;;;;19.60;14.43;;;18.30;99.90;;;;;;5099157;28;20047;-71
2022/09/10 09:38:09;;;;;;;20.40;14.70;;;18.20;99.90;;;;;;5097624;28;20039;-71
2022/09/10 09:40:59;;;;;;;22.55;17.17;;;18.20;99.90;;;;;;5098022;28;20372;-71
2022/09/10 09:43:54;;;;;;;20.45;13.85;;;18.20;99.90;;;;;;5096756;28;20097;-71
2022/09/10 09:46:21;;;;;;;22.65;16.77;;;18.20;99.90;;;;;;5108512;28;20035;-72
2022/09/10 09:48:52;;;;;;;23.27;17.00;;;18.20;99.90;;;;;;5116240;28;20066;-71
2022/09/10 09:51:19;;;;;;;20.13;14.40;;;18.10;99.90;;;;;;5114389;27;20050;-71
2022/09/10 09:53:50;;;;;;;20.95;14.43;;;18.10;99.90;;;;;;5095065;28;20044;-72
2022/09/10 09:56:23;;;;;;;18.75;14.15;;;18.20;99.90;;;;;;5092874;28;20048;-71
2022/09/10 09:58:50;;;;;;;22.48;15.57;;;18.20;99.90;;;;;;5102424;28;20046;-72
2022/09/10 10:01:20;;;;;;;19.98;15.30;;;18.20;99.90;;;;;;5105626;28;20400;-71
2022/09/10 10:03:47;;;;;;;20.08;14.85;;;18.10;99.90;;;;;;5111234;27;20364;-71
2022/09/10 10:06:14;;;;;;;21.58;16.13;;;18.10;99.90;;;;;;5121424;27;20501;-71
2022/09/10 10:08:51;;;;;;;18.30;13.60;;;18.20;99.90;;;;;;5137077;27;20035;-72
2022/09/10 10:11:19;;;;;;;18.50;14.88;;;18.30;99.90;;;;;;5113490;27;20092;-71
2022/09/10 10:13:47;;;;;;;21.58;14.80;;;18.30;99.90;;;;;;5114529;28;20446;-72
2022/09/10 10:16:16;;;;;;;21.05;15.07;;;18.40;99.90;;;;;;5116136;28;20064;-71
2022/09/10 10:18:43;;;;;;;21.02;14.77;;;18.40;99.90;;;;;;5111757;27;20503;-71
2022/09/10 10:21:14;;;;;;;18.88;13.45;;;18.40;99.90;;;;;;5106097;28;20544;-71
2022/09/10 10:23:40;;;;;;;22.77;16.35;;;18.40;99.90;;;;;;5112189;28;20071;-71
2022/09/10 10:26:16;;;;;;;20.67;13.85;;;18.40;99.90;;;;;;5099266;27;20075;-71
2022/09/10 10:28:47;;;;;;;17.92;12.82;;;18.50;99.90;;;;;;5099227;28;20044;-72
2022/09/10 10:31:13;;;;;;;23.25;15.25;;;18.50;99.90;;;;;;5112661;28;20506;-71
2022/09/10 10:33:59;;;;;;;18.60;14.50;;;18.50;99.90;;;;;;5115931;28;20067;-71
2022/09/10 10:36:37;;;;;;;20.88;14.75;;;18.50;99.90;;;;;;5057062;28;20076;-72
2022/09/10 10:39:11;;;;;;;17.20;13.38;;;18.50;99.90;;;;;;5107060;28;20105;-71
2022/09/10 10:41:45;;;;;;;18.33;11.75;;;18.50;99.90;;;;;;5115440;28;20445;-72
2022/09/10 10:44:37;;;;;;;19.13;13.70;;;18.50;99.90;;;;;;5103841;27;20043;-71
2022/09/10 10:47:27;;;;;;;18.65;14.15;;;18.50;99.90;;;;;;5112700;28;20069;-71
2022/09/10 10:50:17;;;;;;;20.05;13.32;;;18.50;99.90;;;;;;5100755;28;20036;-72
2022/09/10 10:53:11;;;;;;;21.08;14.80;;;18.70;99.90;;;;;;5115210;28;20089;-71
2022/09/10 10:56:28;;;;;;;19.33;13.75;;;18.70;99.90;;;;;;5108272;28;20051;-72
2022/09/10 10:59:16;;;;;;;20.08;13.73;;;18.70;99.90;;;;;;5124741;27;20051;-71
2022/09/10 11:01:50;;;;;;;16.23;12.25;;;18.70;99.90;;;;;;5108841;28;20043;-71
2022/09/10 11:04:39;;;;;;;19.08;13.68;;;18.80;99.90;;;;;;5114528;28;20131;-71
2022/09/10 11:07:12;;;;;;;18.40;12.63;;;18.80;99.90;;;;;;5113454;28;20044;-72
2022/09/10 11:09:42;;;;;;;18.52;13.57;;;18.80;99.90;;;;;;5108458;28;20032;-71
2022/09/10 11:12:10;;;;;;;16.52;11.85;;;18.80;99.90;;;;;;5103417;28;20510;-71
2022/09/10 11:14:57;;;;;;;17.02;11.75;;;18.80;99.90;;;;;;5111833;28;20043;-71
2022/09/10 11:17:40;;;;;;;15.55;11.75;;;18.70;99.90;;;;;;5122654;27;20039;-71
2022/09/10 11:20:28;;;;;;;22.30;12.05;;;18.70;99.90;;;;;;5113490;28;20069;-71
2022/09/10 11:23:00;;;;;;;17.48;11.68;;;18.80;99.90;;;;;;5087700;28;20045;-72
2022/09/10 11:25:30;;;;;;;17.23;12.23;;;18.90;99.90;;;;;;5145291;27;20040;-72
2022/09/10 11:28:11;;;;;;;14.18;11.30;;;18.90;99.90;;;;;;5103425;28;20071;-72
2022/09/10 11:30:40;;;;;;;13.80;9.73;;;18.90;99.90;;;;;;5112642;27;20114;-72
2022/09/10 11:33:22;;;;;;;14.77;10.82;;;19.00;99.90;;;;;;5113284;28;20042;-72
2022/09/10 11:36:07;;;;;;;;;;;18.90;99.90;;;;;;5114720;28;20043;-72
2022/09/10 11:39:22;;;;;;;19.98;12.45;;;18.90;99.90;;;;;;5071407;28;19916;-71
2022/09/10 11:41:51;;;;;;;16.65;10.93;;;18.80;99.90;;;;;;5060621;28;20059;-71
2022/09/10 11:44:35;;;;;;;14.00;10.48;;;18.90;99.90;;;;;;5101272;28;20075;-72
2022/09/10 11:47:21;;;;;;;12.75;9.73;;;18.80;99.90;;;;;;5094218;28;20070;-71
2022/09/10 11:49:49;;;;;;;13.82;10.02;;;18.90;99.90;;;;;;5113671;28;20091;-71
2022/09/10 11:52:17;;;;;;;15.45;10.63;;;18.90;99.90;;;;;;5103985;28;20039;-72
2022/09/10 11:54:45;;;;;;;13.88;9.30;;;18.90;99.90;;;;;;5108453;28;20656;-72
2022/09/10 11:57:37;;;;;;;15.20;9.70;;;19.10;99.90;;;;;;5112176;28;20492;-72
2022/09/10 12:00:08;;;;;;;12.43;8.85;;;19.10;99.90;;;;;;5108072;28;20452;-72
2022/09/10 12:02:46;;;;;;;12.20;8.50;;;19.20;99.90;;;;;;5093754;28;20488;-72
2022/09/10 12:05:39;;;;;;;12.68;8.18;;;19.20;99.90;;;;;;5109082;28;20048;-72
2022/09/10 12:08:25;;;;;;;12.63;8.02;;;19.30;99.90;;;;;;5107371;28;20392;-71
2022/09/10 12:11:03;;;;;;;11.43;8.45;;;19.30;99.90;;;;;;5092946;28;20048;-71
2022/09/10 12:13:32;;;;;;;11.90;7.32;;;19.30;99.90;;;;;;5093486;28;20039;-71
2022/09/10 12:16:08;;;;;;;11.25;8.50;;;19.30;99.90;;;;;;5096259;28;20072;-71
2022/09/10 12:18:46;;;;;;;14.05;7.75;;;19.40;99.90;;;;;;5093373;28;20082;-71
2022/09/10 12:21:41;;;;;;;12.60;8.43;;;19.50;99.90;;;;;;5096634;28;20040;-72
2022/09/10 12:24:29;;;;;;;14.43;9.38;;;19.50;99.90;;;;;;5112424;28;20088;-72
2022/09/10 12:26:56;;;;;;;13.73;9.63;;;19.40;99.90;;;;;;5114093;28;20088;-72
2022/09/10 12:29:32;;;;;;;14.05;8.38;;;19.50;99.90;;;;;;5113129;28;20159;-71
2022/09/10 12:32:19;;;;;;;12.43;8.50;;;19.50;99.90;;;;;;5109832;28;20050;-71
2022/09/10 12:34:49;;;;;;;13.93;7.68;;;19.50;99.90;;;;;;5098067;28;20092;-75
2022/09/10 12:37:29;;;;;;;11.57;7.13;;;19.50;99.90;;;;;;5110762;27;20042;-75
2022/09/10 12:40:24;;;;;;;12.63;7.72;;;19.50;99.90;;;;;;5094343;28;20510;-72
2022/09/10 12:42:50;;;;;;;12.90;7.47;;;19.50;99.90;;;;;;5081875;28;20126;-72
2022/09/10 12:46:11;;;;;;;14.13;7.30;;;19.50;99.90;;;;;;5113359;28;20123;-72
2022/09/10 12:48:43;;;;;;;11.52;8.43;;;19.60;99.90;;;;;;5030599;28;20049;-72
2022/09/10 12:51:18;;;;;;;15.35;7.18;;;19.50;99.90;;;;;;5081032;28;20097;-74